createdAt,value
2023-03-18T00:01:10.996Z,99.90
2023-03-18T00:03:38.408Z,99.90
2023-03-18T00:06:09.574Z,99.90
2023-03-18T00:08:37.145Z,99.90
2023-03-18T00:11:05.496Z,99.90
2023-03-18T00:13:33.582Z,99.90
2023-03-18T00:16:00.948Z,99.90
2023-03-18T00:18:28.373Z,99.90
2023-03-18T00:20:55.109Z,99.90
2023-03-18T00:23:22.758Z,99.90
2023-03-18T00:25:52.124Z,99.90
2023-03-18T00:28:19.227Z,99.90
2023-03-18T00:30:46.248Z,99.90
2023-03-18T00:33:13.684Z,99.90
2023-03-18T00:35:40.583Z,99.90
2023-03-18T00:38:09.049Z,99.90
2023-03-18T00:40:53.345Z,99.90
2023-03-18T00:43:29.261Z,99.90
2023-03-18T00:45:56.923Z,99.90
2023-03-18T00:48:24.493Z,99.90
2023-03-18T00:50:51.416Z,99.90
2023-03-18T00:53:18.117Z,99.90
2023-03-18T00:55:45.160Z,99.90
2023-03-18T00:58:12.761Z,99.90
2023-03-18T01:00:41.374Z,99.90
2023-03-18T01:03:08.857Z,99.90
2023-03-18T01:05:36.159Z,99.90
2023-03-18T01:08:04.861Z,99.90
2023-03-18T01:10:32.241Z,99.90
2023-03-18T01:12:59.097Z,99.90
2023-03-18T01:15:25.896Z,99.90
2023-03-18T01:17:56.797Z,99.90
2023-03-18T01:20:25.471Z,99.90
2023-03-18T01:22:54.703Z,99.90
2023-03-18T01:25:22.015Z,99.90
2023-03-18T01:27:52.901Z,99.90
2023-03-18T01:30:19.781Z,99.90
2023-03-18T01:32:46.692Z,99.90
2023-03-18T01:35:13.665Z,99.90
2023-03-18T01:37:46.620Z,99.90
2023-03-18T01:40:14.366Z,99.90
2023-03-18T01:42:42.841Z,99.90
2023-03-18T01:45:11.382Z,99.90
2023-03-18T01:47:40.697Z,99.90
2023-03-18T01:50:07.458Z,99.90
2023-03-18T01:52:35.396Z,99.90
2023-03-18T01:55:04.307Z,99.90
2023-03-18T01:57:32.720Z,99.90
2023-03-18T02:00:00.542Z,99.90
2023-03-18T02:02:29.148Z,99.90
2023-03-18T02:04:56.921Z,99.90
2023-03-18T02:07:25.465Z,99.90
2023-03-18T02:09:53.304Z,99.90
2023-03-18T02:12:25.328Z,99.90
2023-03-18T02:14:56.567Z,99.90
2023-03-18T02:17:27.909Z,99.90
2023-03-18T02:20:12.942Z,99.90
2023-03-18T02:22:41.721Z,99.90
2023-03-18T02:25:27.376Z,99.90
2023-03-18T02:27:59.249Z,99.90
2023-03-18T02:30:31.874Z,99.90
2023-03-18T02:33:00.366Z,99.90
2023-03-18T02:35:28.870Z,99.90
2023-03-18T02:37:58.834Z,99.90
2023-03-18T02:40:25.501Z,99.90
2023-03-18T02:42:52.832Z,99.90
2023-03-18T02:45:23.739Z,99.90
2023-03-18T02:48:11.473Z,99.90
2023-03-18T02:50:38.395Z,99.90
2023-03-18T02:53:05.784Z,99.90
2023-03-18T02:55:32.425Z,99.90
2023-03-18T02:57:59.037Z,99.90
2023-03-18T03:00:25.890Z,99.90
2023-03-18T03:02:52.728Z,99.90
2023-03-18T03:05:21.609Z,99.90
2023-03-18T03:07:48.324Z,99.90
2023-03-18T03:10:15.001Z,99.90
2023-03-18T03:12:43.196Z,99.90
2023-03-18T03:15:11.468Z,99.90
2023-03-18T03:17:44.111Z,99.90
2023-03-18T03:20:11.176Z,99.90
2023-03-18T03:22:37.836Z,99.90
2023-03-18T03:25:05.662Z,99.90
2023-03-18T03:27:36.564Z,99.90
2023-03-18T03:30:04.970Z,99.90
2023-03-18T03:32:32.012Z,99.90
2023-03-18T03:34:58.639Z,99.90
2023-03-18T03:37:25.327Z,99.90
2023-03-18T03:39:53.923Z,99.90
2023-03-18T03:42:20.519Z,99.90
2023-03-18T03:44:47.375Z,99.90
2023-03-18T03:47:14.036Z,99.90
2023-03-18T03:49:41.620Z,99.90
2023-03-18T03:52:08.712Z,99.90
2023-03-18T03:54:38.185Z,99.90
2023-03-18T03:57:05.380Z,99.90
2023-03-18T03:59:32.419Z,99.90
2023-03-18T04:02:20.142Z,99.90
2023-03-18T04:04:48.157Z,99.90
2023-03-18T04:07:24.238Z,99.90
2023-03-18T04:09:51.591Z,99.90
2023-03-18T04:12:20.020Z,99.90
2023-03-18T04:14:53.539Z,99.90
2023-03-18T04:17:21.037Z,99.90
2023-03-18T04:19:48.400Z,99.90
2023-03-18T04:22:17.026Z,99.90
2023-03-18T04:24:44.890Z,99.90
2023-03-18T04:27:13.277Z,99.90
2023-03-18T04:29:40.041Z,99.90
2023-03-18T04:32:07.056Z,99.90
2023-03-18T04:34:35.796Z,99.90
2023-03-18T04:37:03.715Z,99.90
2023-03-18T04:39:34.811Z,99.90
2023-03-18T04:42:01.470Z,99.90
2023-03-18T04:44:28.170Z,99.90
2023-03-18T04:46:55.055Z,99.90
2023-03-18T04:49:24.537Z,99.90
2023-03-18T04:51:51.481Z,99.90
2023-03-18T04:54:25.673Z,99.90
2023-03-18T04:56:54.811Z,99.90
2023-03-18T04:59:22.119Z,99.90
2023-03-18T05:01:50.315Z,99.90
2023-03-18T05:04:17.857Z,99.90
2023-03-18T05:06:48.689Z,99.90
2023-03-18T05:09:15.407Z,99.90
2023-03-18T05:11:43.666Z,99.90
2023-03-18T05:14:19.003Z,99.90
2023-03-18T05:16:47.252Z,99.90
2023-03-18T05:19:14.564Z,99.90
2023-03-18T05:21:48.729Z,99.90
2023-03-18T05:24:17.496Z,99.90
2023-03-18T05:26:44.573Z,99.90
2023-03-18T05:29:12.164Z,99.90
2023-03-18T05:31:46.088Z,99.90
2023-03-18T05:34:13.490Z,99.90
2023-03-18T05:36:42.631Z,99.90
2023-03-18T05:39:10.719Z,99.90
2023-03-18T05:41:37.614Z,99.90
2023-03-18T05:44:08.166Z,99.90
2023-03-18T05:46:37.970Z,99.90
2023-03-18T05:49:11.753Z,99.90
2023-03-18T05:51:54.950Z,99.90
2023-03-18T05:54:33.541Z,99.90
2023-03-18T05:57:00.433Z,99.90
2023-03-18T05:59:27.734Z,99.90
2023-03-18T06:01:57.997Z,99.90
2023-03-18T06:04:27.121Z,99.90
2023-03-18T06:06:54.038Z,99.90
2023-03-18T06:09:22.252Z,99.90
2023-03-18T06:11:49.282Z,99.90
2023-03-18T06:14:15.987Z,99.90
2023-03-18T06:16:43.505Z,99.90
2023-03-18T06:19:12.223Z,99.90
2023-03-18T06:21:39.325Z,99.90
2023-03-18T06:24:06.770Z,99.90
2023-03-18T06:26:34.669Z,99.90
2023-03-18T06:29:03.989Z,99.90
2023-03-18T06:31:31.211Z,99.90
2023-03-18T06:34:01.244Z,99.90
2023-03-18T06:36:31.684Z,99.90
2023-03-18T06:38:59.253Z,99.90
2023-03-18T06:41:28.089Z,99.90
2023-03-18T06:44:19.121Z,99.90
2023-03-18T06:46:46.540Z,99.90
2023-03-18T06:49:14.846Z,99.90
2023-03-18T06:51:48.536Z,99.90
2023-03-18T06:54:17.047Z,99.90
2023-03-18T06:56:46.333Z,99.90
2023-03-18T06:59:17.598Z,99.90
2023-03-18T07:01:44.996Z,99.90
2023-03-18T07:04:12.486Z,99.90
2023-03-18T07:06:39.156Z,99.90
2023-03-18T07:09:06.641Z,99.90
2023-03-18T07:11:33.282Z,99.90
2023-03-18T07:14:06.100Z,99.90
2023-03-18T07:16:35.617Z,99.90
2023-03-18T07:19:02.902Z,99.90
2023-03-18T07:21:30.840Z,99.90
2023-03-18T07:23:58.178Z,99.90
2023-03-18T07:26:25.343Z,99.90
2023-03-18T07:28:52.067Z,99.90
2023-03-18T07:31:18.805Z,99.90
2023-03-18T07:33:46.273Z,99.90
2023-03-18T07:36:13.396Z,99.90
2023-03-18T07:38:40.571Z,99.90
2023-03-18T07:41:07.323Z,99.90
2023-03-18T07:43:35.180Z,99.90
2023-03-18T07:46:02.903Z,99.90
2023-03-18T07:48:30.650Z,99.90
2023-03-18T07:50:57.758Z,99.90
2023-03-18T07:53:25.211Z,99.90
2023-03-18T07:55:51.881Z,99.90
2023-03-18T07:58:18.576Z,99.90
2023-03-18T08:00:45.292Z,99.90
2023-03-18T08:03:12.402Z,99.90
2023-03-18T08:05:39.693Z,99.90
2023-03-18T08:08:06.686Z,99.90
2023-03-18T08:10:34.083Z,99.90
2023-03-18T08:13:00.857Z,99.90
2023-03-18T08:15:28.155Z,99.90
2023-03-18T08:17:54.828Z,99.90
2023-03-18T08:20:21.624Z,99.90
2023-03-18T08:22:48.534Z,99.90
2023-03-18T08:25:15.792Z,99.90
2023-03-18T08:27:42.543Z,99.90
2023-03-18T08:30:10.028Z,99.90
2023-03-18T08:32:37.408Z,99.90
2023-03-18T08:35:05.166Z,99.90
2023-03-18T08:37:31.920Z,99.90
2023-03-18T08:39:58.685Z,99.90
2023-03-18T08:42:25.616Z,99.90
2023-03-18T08:44:52.320Z,99.90
2023-03-18T08:47:19.890Z,99.90
2023-03-18T08:49:46.727Z,99.90
2023-03-18T08:52:13.394Z,99.90
2023-03-18T08:54:40.066Z,99.60
2023-03-18T08:57:06.703Z,98.20
2023-03-18T08:59:33.330Z,96.60
2023-03-18T09:02:00.073Z,94.00
2023-03-18T09:04:26.747Z,90.70
2023-03-18T09:06:53.487Z,91.40
2023-03-18T09:09:21.549Z,90.30
2023-03-18T09:11:51.216Z,88.50
2023-03-18T09:14:18.291Z,87.20
2023-03-18T09:16:46.290Z,82.30
2023-03-18T09:19:13.323Z,77.80
2023-03-18T09:21:40.026Z,74.70
2023-03-18T09:24:07.584Z,73.40
2023-03-18T09:26:34.402Z,72.70
2023-03-18T09:29:01.293Z,71.90
2023-03-18T09:31:28.530Z,71.40
2023-03-18T09:33:55.287Z,71.30
2023-03-18T09:36:22.501Z,71.50
2023-03-18T09:38:49.309Z,72.20
2023-03-18T09:41:31.160Z,72.80
2023-03-18T09:44:01.072Z,71.90
2023-03-18T09:46:46.720Z,70.40
2023-03-18T09:49:23.601Z,69.10
2023-03-18T09:51:54.824Z,71.40
2023-03-18T09:54:36.586Z,71.80
2023-03-18T09:57:04.407Z,71.20
2023-03-18T09:59:37.446Z,71.20
2023-03-18T10:02:04.860Z,69.90
2023-03-18T10:04:42.856Z,68.30
2023-03-18T10:07:14.293Z,67.10
2023-03-18T10:09:51.541Z,65.20
2023-03-18T10:12:31.749Z,63.70
2023-03-18T10:15:15.164Z,62.40
2023-03-18T10:17:49.130Z,62.40
2023-03-18T10:20:39.106Z,61.60
2023-03-18T10:23:05.788Z,61.70
2023-03-18T10:25:40.878Z,61.40
2023-03-18T10:28:16.749Z,61.70
2023-03-18T10:30:52.811Z,62.00
2023-03-18T10:33:46.263Z,63.30
2023-03-18T10:36:15.894Z,65.80
2023-03-18T10:38:50.528Z,66.30
2023-03-18T10:41:27.749Z,66.20
2023-03-18T10:43:56.394Z,64.50
2023-03-18T10:46:24.602Z,64.20
2023-03-18T10:48:51.335Z,64.30
2023-03-18T10:51:21.164Z,63.40
2023-03-18T10:54:07.322Z,61.30
2023-03-18T10:56:35.283Z,61.00
2023-03-18T10:59:02.446Z,61.10
2023-03-18T11:01:32.691Z,60.30
2023-03-18T11:04:01.631Z,59.90
2023-03-18T11:06:35.769Z,60.30
2023-03-18T11:09:08.392Z,60.90
2023-03-18T11:11:35.988Z,61.80
2023-03-18T11:14:03.985Z,60.90
2023-03-18T11:16:30.809Z,59.60
2023-03-18T11:18:58.402Z,58.10
2023-03-18T11:21:26.141Z,57.00
2023-03-18T11:24:08.709Z,56.00
2023-03-18T11:26:55.097Z,56.90
2023-03-18T11:29:24.380Z,57.30
2023-03-18T11:31:58.022Z,58.00
2023-03-18T11:34:29.065Z,60.50
2023-03-18T11:36:59.056Z,61.60
2023-03-18T11:39:27.366Z,62.20
2023-03-18T11:41:54.080Z,62.10
2023-03-18T11:44:25.929Z,62.70
2023-03-18T11:47:04.493Z,62.60
2023-03-18T11:49:31.750Z,63.90
2023-03-18T11:52:05.184Z,64.20
2023-03-18T11:54:32.873Z,64.30
2023-03-18T11:57:18.410Z,64.40
2023-03-18T12:00:00.821Z,63.90
2023-03-18T12:02:39.690Z,64.70
2023-03-18T12:05:09.792Z,65.20
2023-03-18T12:07:38.246Z,65.10
2023-03-18T12:10:08.662Z,65.10
2023-03-18T12:12:48.675Z,64.40
2023-03-18T12:15:15.364Z,63.90
2023-03-18T12:17:45.042Z,63.00
2023-03-18T12:20:22.459Z,61.50
2023-03-18T12:23:02.644Z,61.00
2023-03-18T12:25:32.876Z,60.20
2023-03-18T12:28:02.795Z,60.00
2023-03-18T12:30:33.034Z,58.60
2023-03-18T12:33:06.338Z,57.70
2023-03-18T12:35:52.453Z,57.20
2023-03-18T12:38:33.099Z,58.00
2023-03-18T12:41:19.350Z,58.50
2023-03-18T12:43:55.669Z,59.60
2023-03-18T12:46:34.299Z,60.20
2023-03-18T12:49:01.617Z,61.10
2023-03-18T12:51:30.560Z,61.10
2023-03-18T12:54:08.088Z,61.60
2023-03-18T12:56:37.332Z,62.00
2023-03-18T12:59:09.465Z,62.60
2023-03-18T13:01:41.088Z,61.70
2023-03-18T13:04:12.218Z,62.50
2023-03-18T13:06:40.635Z,62.80
2023-03-18T13:09:32.490Z,62.80
2023-03-18T13:12:01.981Z,63.10
2023-03-18T13:14:31.666Z,64.20
2023-03-18T13:16:59.173Z,64.80
2023-03-18T13:19:26.062Z,65.10
2023-03-18T13:22:11.771Z,65.30
2023-03-18T13:25:08.201Z,65.60
2023-03-18T13:27:41.116Z,67.50
2023-03-18T13:30:15.308Z,66.40
2023-03-18T13:32:45.049Z,66.20
2023-03-18T13:35:22.987Z,66.70
2023-03-18T13:37:52.975Z,65.70
2023-03-18T13:40:29.076Z,66.20
2023-03-18T13:42:57.105Z,65.60
2023-03-18T13:45:27.214Z,66.10
2023-03-18T13:48:02.172Z,64.90
2023-03-18T13:50:34.998Z,66.00
2023-03-18T13:53:02.941Z,65.90
2023-03-18T13:55:29.647Z,66.70
2023-03-18T13:58:06.301Z,65.80
2023-03-18T14:00:40.512Z,66.50
2023-03-18T14:03:17.923Z,66.90
2023-03-18T14:06:01.242Z,67.30
2023-03-18T14:08:43.125Z,68.00
2023-03-18T14:11:28.439Z,69.10
2023-03-18T14:14:05.925Z,69.40
2023-03-18T14:16:37.663Z,69.50
2023-03-18T14:19:40.245Z,70.00
2023-03-18T14:22:19.719Z,70.00
2023-03-18T14:25:06.982Z,68.50
2023-03-18T14:27:44.458Z,64.90
2023-03-18T14:30:29.377Z,61.60
2023-03-18T14:32:57.558Z,59.20
2023-03-18T14:35:29.301Z,57.80
2023-03-18T14:38:00.758Z,57.00
2023-03-18T14:40:27.713Z,55.60
2023-03-18T14:43:01.879Z,54.90
2023-03-18T14:45:28.525Z,54.30
2023-03-18T14:47:56.150Z,54.70
2023-03-18T14:50:49.456Z,55.50
2023-03-18T14:53:20.793Z,56.20
2023-03-18T14:55:48.112Z,57.50
2023-03-18T14:58:16.855Z,59.10
2023-03-18T15:00:44.011Z,60.70
2023-03-18T15:03:27.629Z,63.00
2023-03-18T15:05:56.502Z,63.70
2023-03-18T15:08:31.938Z,64.90
2023-03-18T15:11:09.676Z,65.70
2023-03-18T15:13:41.222Z,65.70
2023-03-18T15:16:12.135Z,64.70
2023-03-18T15:18:39.927Z,64.20
2023-03-18T15:21:13.124Z,63.80
2023-03-18T15:23:54.302Z,64.00
2023-03-18T15:26:21.758Z,64.50
2023-03-18T15:28:49.132Z,65.00
2023-03-18T15:31:26.720Z,66.10
2023-03-18T15:34:12.202Z,67.00
2023-03-18T15:36:40.170Z,67.40
2023-03-18T15:39:25.493Z,68.50
2023-03-18T15:41:56.922Z,70.20
2023-03-18T15:44:28.970Z,71.50
2023-03-18T15:47:02.722Z,72.10
2023-03-18T15:49:29.378Z,73.50
2023-03-18T15:52:00.569Z,74.40
2023-03-18T15:54:38.316Z,75.10
2023-03-18T15:57:22.910Z,76.10
2023-03-18T15:59:49.529Z,76.90
2023-03-18T16:02:18.465Z,77.30
2023-03-18T16:04:46.650Z,77.80
2023-03-18T16:07:18.369Z,78.20
2023-03-18T16:09:47.974Z,78.20
2023-03-18T16:12:19.316Z,78.00
2023-03-18T16:14:47.637Z,78.20
2023-03-18T16:17:15.711Z,76.90
2023-03-18T16:19:43.928Z,76.90
2023-03-18T16:22:10.661Z,76.70
2023-03-18T16:24:37.260Z,77.00
2023-03-18T16:27:04.651Z,77.20
2023-03-18T16:29:32.715Z,77.60
2023-03-18T16:32:00.298Z,77.40
2023-03-18T16:34:27.877Z,77.60
2023-03-18T16:36:55.315Z,78.30
2023-03-18T16:39:27.376Z,78.60
2023-03-18T16:41:54.788Z,78.80
2023-03-18T16:44:22.304Z,79.20
2023-03-18T16:46:50.288Z,79.40
2023-03-18T16:49:19.681Z,79.50
2023-03-18T16:51:46.702Z,80.30
2023-03-18T16:54:21.070Z,80.50
2023-03-18T16:56:49.042Z,80.70
2023-03-18T16:59:15.724Z,80.60
2023-03-18T17:01:43.781Z,81.20
2023-03-18T17:04:18.365Z,81.50
2023-03-18T17:06:45.219Z,82.00
2023-03-18T17:09:11.958Z,82.10
2023-03-18T17:11:38.854Z,82.80
2023-03-18T17:14:07.154Z,83.70
2023-03-18T17:16:33.907Z,84.00
2023-03-18T17:19:01.472Z,84.50
2023-03-18T17:21:29.423Z,84.80
2023-03-18T17:23:56.255Z,85.90
2023-03-18T17:26:24.380Z,87.10
2023-03-18T17:28:52.228Z,88.10
2023-03-18T17:31:20.614Z,88.20
2023-03-18T17:33:47.387Z,89.20
2023-03-18T17:36:14.032Z,90.10
2023-03-18T17:38:41.026Z,90.70
2023-03-18T17:41:13.532Z,91.30
2023-03-18T17:43:40.293Z,91.90
2023-03-18T17:46:07.062Z,93.20
2023-03-18T17:48:34.827Z,94.30
2023-03-18T17:51:04.188Z,95.90
2023-03-18T17:53:38.336Z,97.10
2023-03-18T17:56:06.321Z,98.10
2023-03-18T17:58:33.832Z,99.10
2023-03-18T18:01:03.613Z,99.80
2023-03-18T18:03:30.741Z,99.90
2023-03-18T18:05:57.635Z,99.90
2023-03-18T18:08:25.437Z,99.90
2023-03-18T18:10:53.439Z,99.90
2023-03-18T18:13:22.144Z,99.90
2023-03-18T18:15:50.571Z,99.90
2023-03-18T18:18:24.539Z,99.90
2023-03-18T18:20:53.108Z,99.90
2023-03-18T18:23:24.863Z,99.90
2023-03-18T18:25:52.077Z,99.90
2023-03-18T18:28:21.096Z,99.90
2023-03-18T18:30:51.039Z,99.90
2023-03-18T18:33:17.756Z,99.90
2023-03-18T18:35:44.522Z,99.90
2023-03-18T18:38:12.601Z,99.90
2023-03-18T18:40:40.091Z,99.90
2023-03-18T18:43:06.734Z,99.90
2023-03-18T18:45:34.403Z,99.90
2023-03-18T18:48:01.928Z,99.90
2023-03-18T18:50:32.060Z,99.90
2023-03-18T18:52:59.091Z,99.90
2023-03-18T18:55:25.797Z,99.90
2023-03-18T18:57:53.149Z,99.90
2023-03-18T19:00:21.985Z,99.90
2023-03-18T19:02:56.230Z,99.90
2023-03-18T19:05:23.319Z,99.90
2023-03-18T19:07:50.132Z,99.90
2023-03-18T19:10:17.367Z,99.90
2023-03-18T19:12:44.389Z,99.90
2023-03-18T19:15:13.413Z,99.90
2023-03-18T19:17:42.704Z,99.90
2023-03-18T19:20:29.639Z,99.90
2023-03-18T19:22:57.529Z,99.90
2023-03-18T19:25:25.592Z,99.90
2023-03-18T19:27:52.962Z,99.90
2023-03-18T19:30:22.273Z,99.90
2023-03-18T19:32:49.828Z,99.90
2023-03-18T19:35:16.933Z,99.90
2023-03-18T19:37:45.571Z,99.90
2023-03-18T19:40:20.603Z,99.90
2023-03-18T19:42:47.290Z,99.90
2023-03-18T19:45:13.971Z,99.90
2023-03-18T19:47:42.005Z,99.90
2023-03-18T19:50:19.212Z,99.90
2023-03-18T19:52:46.015Z,99.90
2023-03-18T19:55:13.898Z,99.90
2023-03-18T19:57:41.613Z,99.90
2023-03-18T20:00:17.524Z,99.90
2023-03-18T20:02:44.686Z,99.90
2023-03-18T20:05:19.259Z,99.90
2023-03-18T20:07:46.610Z,99.90
2023-03-18T20:10:14.017Z,99.90
2023-03-18T20:12:44.972Z,99.90
2023-03-18T20:15:13.775Z,99.90
2023-03-18T20:17:41.814Z,99.90
2023-03-18T20:20:16.788Z,99.90
2023-03-18T20:22:48.068Z,99.90
2023-03-18T20:25:36.500Z,99.90
2023-03-18T20:28:04.839Z,99.90
2023-03-18T20:30:35.901Z,99.90
2023-03-18T20:33:06.417Z,99.90
2023-03-18T20:35:34.787Z,99.90
2023-03-18T20:38:13.180Z,99.90
2023-03-18T20:40:42.485Z,99.90
2023-03-18T20:43:14.387Z,99.90
2023-03-18T20:45:41.246Z,99.90
2023-03-18T20:48:08.890Z,99.90
2023-03-18T20:50:36.277Z,99.90
2023-03-18T20:53:04.408Z,99.90
2023-03-18T20:55:32.869Z,99.90
2023-03-18T20:58:00.972Z,99.90
2023-03-18T21:00:29.183Z,99.90
2023-03-18T21:02:57.976Z,99.90
2023-03-18T21:05:26.166Z,99.90
2023-03-18T21:07:53.253Z,99.90
2023-03-18T21:10:22.296Z,99.90
2023-03-18T21:12:49.634Z,99.90
2023-03-18T21:15:16.514Z,99.90
2023-03-18T21:17:44.315Z,99.90
2023-03-18T21:20:22.106Z,99.90
2023-03-18T21:22:50.251Z,99.90
2023-03-18T21:25:21.833Z,99.90
2023-03-18T21:27:49.137Z,99.90
2023-03-18T21:30:16.654Z,99.90
2023-03-18T21:32:44.901Z,99.90
2023-03-18T21:35:17.033Z,99.90
2023-03-18T21:37:43.785Z,99.90
2023-03-18T21:40:15.174Z,99.90
2023-03-18T21:42:43.669Z,99.90
2023-03-18T21:45:12.544Z,99.90
2023-03-18T21:47:39.333Z,99.90
2023-03-18T21:50:06.987Z,99.90
2023-03-18T21:52:39.868Z,99.90
2023-03-18T21:55:06.809Z,99.90
2023-03-18T21:57:33.486Z,99.90
2023-03-18T22:00:00.237Z,99.90
2023-03-18T22:02:34.325Z,99.90
2023-03-18T22:05:02.124Z,99.90
2023-03-18T22:07:30.059Z,99.90
2023-03-18T22:09:57.122Z,99.90
2023-03-18T22:12:25.186Z,99.90
2023-03-18T22:14:52.734Z,99.90
2023-03-18T22:17:32.086Z,99.90
2023-03-18T22:19:59.952Z,99.90
2023-03-18T22:22:29.271Z,99.90
2023-03-18T22:24:56.582Z,99.90
2023-03-18T22:27:24.642Z,99.90
2023-03-18T22:29:52.402Z,99.90
2023-03-18T22:32:24.026Z,99.90
2023-03-18T22:34:51.121Z,99.90
2023-03-18T22:37:21.454Z,99.90
2023-03-18T22:39:48.486Z,99.90
2023-03-18T22:42:16.626Z,99.90
2023-03-18T22:44:43.414Z,99.90
2023-03-18T22:47:17.210Z,99.90
2023-03-18T22:49:44.011Z,99.90
2023-03-18T22:52:15.262Z,99.90
2023-03-18T22:54:42.115Z,99.90
2023-03-18T22:57:13.739Z,99.90
2023-03-18T22:59:40.387Z,99.90
2023-03-18T23:02:10.245Z,99.90
2023-03-18T23:04:37.400Z,99.90
2023-03-18T23:07:04.221Z,99.90
2023-03-18T23:09:31.681Z,99.90
2023-03-18T23:11:58.363Z,99.90
2023-03-18T23:14:25.112Z,99.90
2023-03-18T23:16:51.747Z,99.90
2023-03-18T23:19:18.381Z,99.90
2023-03-18T23:21:45.043Z,99.90
2023-03-18T23:24:13.292Z,99.90
2023-03-18T23:26:41.160Z,99.90
2023-03-18T23:29:08.865Z,99.90
2023-03-18T23:31:35.561Z,99.90
2023-03-18T23:34:02.247Z,99.90
2023-03-18T23:36:28.901Z,99.90
2023-03-18T23:38:55.907Z,99.90
2023-03-18T23:41:22.566Z,99.90
2023-03-18T23:43:49.274Z,99.90
2023-03-18T23:46:16.151Z,99.90
2023-03-18T23:48:42.885Z,99.90
2023-03-18T23:51:09.572Z,99.90
2023-03-18T23:53:36.394Z,99.90
2023-03-18T23:56:03.053Z,99.90
2023-03-18T23:58:29.782Z,99.90
